Time;durP1;ratioP1;P1;durP2;ratioP2;P2;SDS_P1;SDS_P2;PMS_P1;PMS_P2;Temp;Humidity;BMP_temperature;BMP_pressure;BME280_temperature;BME280_humidity;BME280_pressure;Samples;Min_cycle;Max_cycle;Signal;HPM_P1;HPM_P2
2022/09/12 00:01:20;;;;;;;8.83;7.63;;;16.30;99.90;;;;;;5075483;28;20464;-59
2022/09/12 00:03:48;;;;;;;9.70;8.80;;;16.20;99.90;;;;;;5075087;28;20440;-60
2022/09/12 00:06:19;;;;;;;11.07;9.97;;;16.10;99.90;;;;;;5074989;28;20451;-60
2022/09/12 00:08:47;;;;;;;8.77;7.87;;;16.10;99.90;;;;;;5075316;28;20786;-60
2022/09/12 00:11:14;;;;;;;10.13;8.67;;;16.10;99.90;;;;;;5075059;28;20963;-60
2022/09/12 00:13:42;;;;;;;9.53;8.63;;;16.30;99.90;;;;;;5074860;28;20440;-60
2022/09/12 00:16:16;;;;;;;10.60;9.33;;;16.30;99.90;;;;;;5075107;28;20451;-60
2022/09/12 00:18:45;;;;;;;8.80;8.00;;;15.80;99.90;;;;;;5074860;28;20461;-59
2022/09/12 00:21:13;;;;;;;9.90;8.70;;;15.50;99.90;;;;;;5074647;28;20473;-60
2022/09/12 00:23:41;;;;;;;9.63;8.63;;;15.40;99.90;;;;;;5074975;28;20497;-60
2022/09/12 00:26:09;;;;;;;9.30;8.50;;;15.30;99.90;;;;;;5075045;28;20473;-60
2022/09/12 00:28:37;;;;;;;10.67;9.00;;;15.50;99.90;;;;;;5075004;28;20440;-59
2022/09/12 00:31:06;;;;;;;10.27;8.53;;;15.90;99.90;;;;;;5074716;28;20464;-59
2022/09/12 00:33:33;;;;;;;8.50;7.70;;;16.00;99.90;;;;;;5074364;28;20548;-59
2022/09/12 00:36:05;;;;;;;9.83;8.83;;;16.30;99.90;;;;;;5074879;28;20445;-60
2022/09/12 00:38:32;;;;;;;9.20;8.30;;;16.00;99.90;;;;;;5073819;28;20974;-59
2022/09/12 00:41:00;;;;;;;8.90;8.00;;;16.20;99.90;;;;;;5074244;28;20479;-59
2022/09/12 00:43:36;;;;;;;9.60;8.70;;;16.20;99.90;;;;;;5074485;28;20788;-60
2022/09/12 00:46:10;;;;;;;9.47;8.60;;;16.20;99.90;;;;;;5074340;28;20931;-59
2022/09/12 00:48:42;;;;;;;8.90;8.10;;;16.20;99.90;;;;;;5074569;28;20417;-60
2022/09/12 00:51:10;;;;;;;9.27;8.30;;;16.50;99.90;;;;;;5073937;28;21016;-59
2022/09/12 00:53:38;;;;;;;9.97;9.07;;;16.40;99.90;;;;;;5074536;28;20798;-60
2022/09/12 00:56:07;;;;;;;8.57;7.70;;;16.20;99.90;;;;;;5074473;28;20531;-59
2022/09/12 00:58:40;;;;;;;9.50;8.63;;;15.80;99.90;;;;;;5074213;28;20579;-60
2022/09/12 01:01:07;;;;;;;10.20;9.30;;;15.60;99.90;;;;;;5074209;28;20470;-60
2022/09/12 01:03:34;;;;;;;11.30;8.60;;;15.60;99.90;;;;;;5073986;28;20444;-59
2022/09/12 01:06:08;;;;;;;8.30;7.60;;;15.80;99.90;;;;;;5074122;28;20503;-59
2022/09/12 01:08:37;;;;;;;8.70;7.90;;;16.00;99.90;;;;;;5073806;28;20496;-59
2022/09/12 01:11:08;;;;;;;10.20;9.00;;;16.20;99.90;;;;;;5073925;28;20476;-60
2022/09/12 01:13:36;;;;;;;9.63;8.63;;;16.20;99.90;;;;;;5074174;28;20433;-60
2022/09/12 01:16:05;;;;;;;8.67;7.87;;;15.80;99.90;;;;;;5074009;28;20445;-59
2022/09/12 01:18:43;;;;;;;9.00;8.10;;;15.60;99.90;;;;;;5073570;28;20483;-60
2022/09/12 01:21:15;;;;;;;9.83;8.93;;;;;;;;;;5073545;28;20986;-59
2022/09/12 01:24:18;;;;;;;9.13;8.23;;;15.40;99.90;;;;;;5074043;28;20425;-60
2022/09/12 01:27:21;;;;;;;8.67;7.87;;;15.30;99.90;;;;;;5073519;28;20447;-60
2022/09/12 01:30:23;;;;;;;8.60;7.90;;;15.50;99.90;;;;;;5073715;28;20435;-59
2022/09/12 01:33:07;;;;;;;12.57;8.67;;;15.80;99.90;;;;;;5073486;28;20464;-59
2022/09/12 01:35:45;;;;;;;10.77;9.67;;;16.00;99.90;;;;;;5073503;28;20439;-60
2022/09/12 01:38:25;;;;;;;10.10;9.10;;;15.90;99.90;;;;;;5073620;28;20428;-60
2022/09/12 01:41:02;;;;;;;10.43;8.70;;;15.90;99.90;;;;;;5073362;28;20475;-59
2022/09/12 01:43:36;;;;;;;8.90;7.70;;;15.70;99.90;;;;;;5073599;28;20432;-60
2022/09/12 01:46:09;;;;;;;10.33;9.37;;;15.60;99.90;;;;;;5073507;28;20876;-59
2022/09/12 01:48:44;;;;;;;10.03;8.90;;;15.90;99.90;;;;;;5072578;28;20421;-59
2022/09/12 01:51:17;;;;;;;12.80;8.57;;;15.50;99.90;;;;;;5072141;28;20489;-60
2022/09/12 01:53:48;;;;;;;9.03;8.13;;;15.30;99.90;;;;;;5073541;28;20429;-60
2022/09/12 01:56:21;;;;;;;9.77;8.97;;;15.60;99.90;;;;;;5073120;28;20447;-60
2022/09/12 01:58:52;;;;;;;9.57;8.67;;;15.60;99.90;;;;;;5073041;28;20518;-60
2022/09/12 02:01:23;;;;;;;9.33;7.80;;;15.50;99.90;;;;;;5073445;28;20464;-60
2022/09/12 02:04:00;;;;;;;8.47;7.77;;;15.60;99.90;;;;;;5073267;28;20428;-60
2022/09/12 02:06:32;;;;;;;9.70;8.80;;;15.70;99.90;;;;;;5073353;28;20443;-60
2022/09/12 02:09:04;;;;;;;10.43;9.33;;;15.70;99.90;;;;;;5073348;28;20755;-60
2022/09/12 02:11:36;;;;;;;15.90;8.50;;;15.50;99.90;;;;;;5073239;28;20472;-61
2022/09/12 02:14:06;;;;;;;9.87;8.87;;;15.10;99.90;;;;;;5073434;28;20432;-60
2022/09/12 02:16:39;;;;;;;11.67;10.43;;;15.10;99.90;;;;;;5073017;28;20425;-60
2022/09/12 02:19:10;;;;;;;11.63;8.73;;;15.40;99.90;;;;;;5072800;28;20993;-59
2022/09/12 02:21:39;;;;;;;9.50;8.67;;;15.30;99.90;;;;;;5072934;28;20563;-60
2022/09/12 02:24:10;;;;;;;8.90;8.00;;;15.30;99.90;;;;;;5073024;28;20452;-60
2022/09/12 02:26:44;;;;;;;9.87;8.97;;;15.10;99.90;;;;;;5073102;28;20436;-60
2022/09/12 02:29:11;;;;;;;11.30;9.50;;;15.00;99.90;;;;;;5072797;28;20425;-60
2022/09/12 02:31:45;;;;;;;9.60;8.70;;;14.90;99.90;;;;;;5072820;28;20468;-60
2022/09/12 02:34:26;;;;;;;9.60;8.60;;;15.00;99.90;;;;;;5073136;28;20499;-60
2022/09/12 02:37:05;;;;;;;10.13;9.13;;;15.10;99.90;;;;;;5073130;28;20425;-59
2022/09/12 02:39:33;;;;;;;10.70;9.10;;;15.10;99.90;;;;;;5072959;28;20468;-59
2022/09/12 02:42:02;;;;;;;10.07;8.97;;;14.90;99.90;;;;;;5072798;28;21021;-60
2022/09/12 02:44:31;;;;;;;8.27;7.57;;;14.90;99.90;;;;;;5072763;28;20444;-60
2022/09/12 02:47:04;;;;;;;9.90;8.90;;;14.90;99.90;;;;;;5072709;28;21038;-59
2022/09/12 02:49:33;;;;;;;10.73;9.67;;;14.90;99.90;;;;;;5072662;28;20512;-59
2022/09/12 02:52:02;;;;;;;11.20;10.17;;;15.10;99.90;;;;;;5072541;28;20464;-60
2022/09/12 02:54:30;;;;;;;11.13;10.13;;;15.30;99.90;;;;;;5072683;28;20501;-60
2022/09/12 02:56:57;;;;;;;12.70;9.97;;;15.30;99.90;;;;;;5072814;28;20445;-60
2022/09/12 02:59:25;;;;;;;11.00;9.90;;;15.00;99.90;;;;;;5072388;28;20991;-60
2022/09/12 03:02:12;;;;;;;10.43;9.37;;;15.00;99.90;;;;;;5076057;28;20475;-60
2022/09/12 03:05:09;;;;;;;9.50;8.60;;;15.00;99.90;;;;;;5076583;28;20451;-60
2022/09/12 03:08:06;;;;;;;11.37;10.30;;;15.10;99.90;;;;;;5071193;28;20511;-60
2022/09/12 03:10:41;;;;;;;11.33;9.87;;;15.20;99.90;;;;;;5076376;28;20425;-60
2022/09/12 03:13:21;;;;;;;10.77;9.67;;;15.30;99.90;;;;;;5076095;28;20925;-60
2022/09/12 03:15:58;;;;;;;9.10;8.30;;;14.80;99.90;;;;;;5076369;28;20425;-60
2022/09/12 03:18:37;;;;;;;9.80;8.90;;;14.60;99.90;;;;;;5076125;28;20527;-60
2022/09/12 03:21:14;;;;;;;10.10;9.00;;;14.90;99.90;;;;;;5076306;28;20459;-60
2022/09/12 03:23:46;;;;;;;10.30;9.30;;;15.10;99.90;;;;;;5076217;28;20419;-60
2022/09/12 03:26:20;;;;;;;10.63;9.60;;;15.10;99.90;;;;;;5076143;28;20425;-60
2022/09/12 03:28:49;;;;;;;10.40;9.30;;;14.80;99.90;;;;;;5075898;28;20431;-60
2022/09/12 03:31:19;;;;;;;9.90;9.10;;;14.70;99.90;;;;;;5075832;28;20824;-61
2022/09/12 03:33:46;;;;;;;10.37;9.37;;;;;;;;;;5076117;28;20424;-60
2022/09/12 03:36:20;;;;;;;9.57;8.77;;;14.50;99.90;;;;;;5075592;28;20444;-60
2022/09/12 03:38:47;;;;;;;11.93;10.43;;;14.40;99.90;;;;;;5075540;28;20424;-59
2022/09/12 03:41:14;;;;;;;12.17;10.00;;;14.30;99.90;;;;;;5075675;28;20986;-60
2022/09/12 03:43:41;;;;;;;12.27;10.40;;;14.20;99.90;;;;;;5075840;28;20806;-60
2022/09/12 03:46:08;;;;;;;10.63;9.53;;;14.30;99.90;;;;;;5075432;28;20452;-60
2022/09/12 03:48:35;;;;;;;10.53;9.13;;;14.30;99.90;;;;;;5075510;28;20454;-60
2022/09/12 03:51:03;;;;;;;10.20;9.20;;;14.30;99.90;;;;;;5075181;28;20484;-59
2022/09/12 03:53:32;;;;;;;10.33;9.23;;;14.30;99.90;;;;;;5075593;28;20444;-60
2022/09/12 03:55:59;;;;;;;12.20;9.93;;;14.30;99.90;;;;;;5075704;28;20475;-60
2022/09/12 03:58:31;;;;;;;11.43;9.20;;;14.20;99.90;;;;;;5075239;28;20451;-60
2022/09/12 04:00:58;;;;;;;12.83;9.00;;;14.10;99.90;;;;;;5075165;28;20785;-59
2022/09/12 04:03:26;;;;;;;10.93;9.83;;;14.00;99.90;;;;;;5075480;28;20482;-60
2022/09/12 04:05:53;;;;;;;9.67;8.80;;;14.30;99.90;;;;;;5075178;28;20534;-60
2022/09/12 04:08:20;;;;;;;10.00;9.10;;;14.30;99.90;;;;;;5075086;28;20425;-60
2022/09/12 04:10:49;;;;;;;12.60;10.67;;;14.30;99.90;;;;;;5075037;28;20444;-60
2022/09/12 04:13:16;;;;;;;12.67;11.37;;;14.50;99.90;;;;;;5074251;28;20440;-60
2022/09/12 04:15:43;;;;;;;11.23;10.13;;;14.60;99.90;;;;;;5074933;28;20883;-60
2022/09/12 04:18:10;;;;;;;10.70;9.60;;;14.60;99.90;;;;;;5075106;28;20527;-60
2022/09/12 04:20:37;;;;;;;10.90;9.40;;;14.60;99.90;;;;;;5074792;28;20480;-59
2022/09/12 04:23:04;;;;;;;11.27;10.17;;;14.40;99.90;;;;;;5075022;28;20456;-59
2022/09/12 04:25:31;;;;;;;11.03;9.40;;;14.20;99.90;;;;;;5075024;28;20444;-60
2022/09/12 04:28:00;;;;;;;14.70;10.27;;;14.10;99.90;;;;;;5074812;28;20456;-60
2022/09/12 04:30:27;;;;;;;10.73;9.07;;;14.10;99.90;;;;;;5074902;28;20447;-60
2022/09/12 04:32:54;;;;;;;10.13;9.13;;;14.00;99.90;;;;;;5074429;28;20990;-60
2022/09/12 04:35:21;;;;;;;10.83;9.73;;;14.10;99.90;;;;;;5074956;28;20448;-60
2022/09/12 04:37:49;;;;;;;15.13;10.90;;;14.10;99.90;;;;;;5074346;28;20455;-60
2022/09/12 04:40:17;;;;;;;15.43;10.70;;;14.10;99.90;;;;;;5074421;28;20483;-60
2022/09/12 04:42:44;;;;;;;14.73;10.17;;;14.10;99.90;;;;;;5074874;28;20978;-60
2022/09/12 04:45:13;;;;;;;11.37;10.20;;;14.10;99.90;;;;;;5074384;28;20425;-60
2022/09/12 04:47:40;;;;;;;13.03;11.60;;;13.90;99.90;;;;;;5074490;28;20480;-60
2022/09/12 04:50:08;;;;;;;11.93;10.73;;;13.80;99.90;;;;;;5074565;28;20468;-60
2022/09/12 04:52:35;;;;;;;11.07;9.93;;;13.90;99.90;;;;;;5074542;28;20468;-60
2022/09/12 04:55:02;;;;;;;12.83;11.50;;;14.10;99.90;;;;;;5074392;28;20444;-60
2022/09/12 04:57:29;;;;;;;11.80;10.70;;;14.30;99.90;;;;;;5073940;28;20998;-60
2022/09/12 04:59:57;;;;;;;12.73;11.30;;;14.20;99.90;;;;;;5074405;28;20479;-60
2022/09/12 05:02:26;;;;;;;11.27;9.97;;;14.00;99.90;;;;;;5073877;28;20519;-60
2022/09/12 05:04:53;;;;;;;14.43;11.30;;;14.10;99.90;;;;;;5074199;28;20453;-60
2022/09/12 05:07:20;;;;;;;15.17;11.90;;;14.10;99.90;;;;;;5074210;28;20448;-59
2022/09/12 05:09:47;;;;;;;13.10;11.50;;;14.20;99.90;;;;;;5073805;28;20447;-59
2022/09/12 05:12:14;;;;;;;11.97;10.30;;;14.50;99.90;;;;;;5073951;28;20483;-59
2022/09/12 05:14:41;;;;;;;12.70;10.27;;;14.50;99.90;;;;;;5074032;28;20440;-59
2022/09/12 05:17:08;;;;;;;14.83;11.00;;;14.50;99.90;;;;;;5073870;28;20455;-59
2022/09/12 05:19:38;;;;;;;13.50;11.50;;;14.50;99.90;;;;;;5073567;28;20572;-60
2022/09/12 05:22:05;;;;;;;11.87;10.50;;;14.50;99.90;;;;;;5073791;28;20464;-59
2022/09/12 05:24:33;;;;;;;11.07;9.90;;;14.60;99.90;;;;;;5073587;28;20456;-59
2022/09/12 05:27:02;;;;;;;13.53;10.60;;;14.70;99.90;;;;;;5073713;28;20476;-59
2022/09/12 05:29:29;;;;;;;14.23;10.63;;;14.80;99.90;;;;;;5073718;28;20448;-60
2022/09/12 05:31:56;;;;;;;11.50;10.20;;;14.90;99.90;;;;;;5072817;28;20472;-60
2022/09/12 05:34:24;;;;;;;11.93;10.67;;;14.80;99.90;;;;;;5073438;28;20946;-60
2022/09/12 05:36:52;;;;;;;12.70;10.80;;;14.80;99.90;;;;;;5073664;28;20448;-60
2022/09/12 05:39:19;;;;;;;12.23;10.93;;;14.80;99.90;;;;;;5073737;28;20444;-60
2022/09/12 05:41:47;;;;;;;12.13;10.83;;;14.70;99.90;;;;;;5073339;28;20981;-59
2022/09/12 05:44:14;;;;;;;12.33;11.10;;;14.50;99.90;;;;;;5073449;28;20449;-59
2022/09/12 05:46:44;;;;;;;10.47;9.47;;;14.50;99.90;;;;;;5073161;28;20561;-59
2022/09/12 05:49:13;;;;;;;11.80;10.57;;;14.60;99.90;;;;;;5072948;28;20551;-59
2022/09/12 05:51:42;;;;;;;12.40;11.10;;;14.60;99.90;;;;;;5073012;28;20468;-59
2022/09/12 05:54:18;;;;;;;13.40;10.63;;;14.60;99.90;;;;;;5073228;28;20459;-59
2022/09/12 05:56:46;;;;;;;14.17;11.03;;;14.70;99.90;;;;;;5073065;28;20896;-59
2022/09/12 05:59:15;;;;;;;14.80;10.67;;;14.70;99.90;;;;;;5072859;28;20491;-59
2022/09/12 06:01:43;;;;;;;12.13;10.93;;;14.80;99.90;;;;;;5073182;28;20492;-59
2022/09/12 06:04:11;;;;;;;11.73;10.30;;;14.70;99.90;;;;;;5072859;28;20480;-59
2022/09/12 06:06:40;;;;;;;14.43;12.27;;;14.70;99.90;;;;;;5072674;28;20449;-59
2022/09/12 06:09:08;;;;;;;13.17;11.20;;;14.60;99.90;;;;;;5073026;28;20448;-59
2022/09/12 06:11:39;;;;;;;12.03;10.77;;;14.50;99.90;;;;;;5072908;28;20562;-59
2022/09/12 06:14:08;;;;;;;15.40;10.70;;;14.50;99.90;;;;;;5072725;28;20433;-59
2022/09/12 06:16:36;;;;;;;14.90;12.53;;;14.50;99.90;;;;;;5072626;28;20452;-59
2022/09/12 06:19:06;;;;;;;13.73;12.47;;;14.60;99.90;;;;;;5072895;28;20475;-59
2022/09/12 06:21:34;;;;;;;14.57;12.63;;;14.60;99.90;;;;;;5072636;28;20494;-60
2022/09/12 06:24:02;;;;;;;14.30;11.33;;;14.60;99.90;;;;;;5072490;28;20451;-60
2022/09/12 06:26:29;;;;;;;13.83;11.10;;;14.70;99.90;;;;;;5072416;28;20501;-60
2022/09/12 06:28:59;;;;;;;17.97;11.10;;;14.80;99.90;;;;;;5072991;28;20566;-60
2022/09/12 06:31:28;;;;;;;14.03;11.60;;;14.90;99.90;;;;;;5072774;28;20522;-60
2022/09/12 06:33:57;;;;;;;11.50;10.40;;;15.00;99.90;;;;;;5072774;28;20543;-60
2022/09/12 06:36:25;;;;;;;13.17;11.77;;;15.10;99.90;;;;;;5075430;28;20448;-59
2022/09/12 06:38:56;;;;;;;14.00;12.33;;;15.20;99.90;;;;;;5076621;28;20455;-59
2022/09/12 06:41:25;;;;;;;14.00;11.80;;;15.10;99.90;;;;;;5076578;28;20488;-59
2022/09/12 06:43:53;;;;;;;13.77;12.27;;;15.10;99.90;;;;;;5076012;28;20557;-59
2022/09/12 06:46:22;;;;;;;13.50;12.10;;;15.20;99.90;;;;;;5076516;28;20454;-59
2022/09/12 06:48:50;;;;;;;16.77;12.40;;;15.10;99.90;;;;;;5076553;28;20448;-59
2022/09/12 06:51:18;;;;;;;16.10;12.83;;;15.20;99.90;;;;;;5076187;28;20479;-59
2022/09/12 06:53:46;;;;;;;13.40;11.43;;;15.30;99.90;;;;;;5076520;28;20498;-59
2022/09/12 06:56:15;;;;;;;12.30;11.13;;;15.30;99.90;;;;;;5076607;28;20448;-59
2022/09/12 06:58:42;;;;;;;12.20;10.73;;;15.60;99.90;;;;;;5076481;28;20476;-59
2022/09/12 07:01:12;;;;;;;14.57;12.60;;;15.70;99.90;;;;;;5075914;28;20506;-60
2022/09/12 07:03:41;;;;;;;12.17;10.93;;;15.60;99.90;;;;;;5076316;28;20539;-59
2022/09/12 07:06:10;;;;;;;14.60;10.30;;;15.70;99.90;;;;;;5076032;28;20467;-59
2022/09/12 07:08:38;;;;;;;13.53;11.80;;;15.70;99.90;;;;;;5075753;28;20791;-59
2022/09/12 07:11:14;;;;;;;11.97;9.50;;;15.60;99.90;;;;;;5076018;28;20486;-60
2022/09/12 07:13:42;;;;;;;11.60;10.03;;;15.80;99.90;;;;;;5076020;28;20452;-59
2022/09/12 07:16:10;;;;;;;12.30;11.10;;;15.80;99.90;;;;;;5075752;28;20448;-59
2022/09/12 07:18:40;;;;;;;13.07;11.50;;;15.90;99.90;;;;;;5075734;28;20480;-59
2022/09/12 07:21:10;;;;;;;16.80;12.73;;;16.00;99.90;;;;;;5075553;28;20494;-60
2022/09/12 07:23:38;;;;;;;11.90;10.70;;;16.10;99.90;;;;;;5075681;28;20780;-60
2022/09/12 07:26:06;;;;;;;13.67;11.13;;;16.10;99.90;;;;;;5075696;28;20938;-60
2022/09/12 07:28:34;;;;;;;13.67;12.20;;;16.10;99.90;;;;;;5075782;28;20451;-60
2022/09/12 07:31:06;;;;;;;15.50;11.90;;;16.10;99.90;;;;;;5075622;28;20863;-60
2022/09/12 07:33:33;;;;;;;11.43;9.60;;;16.30;99.90;;;;;;5075703;28;20437;-59
2022/09/12 07:36:04;;;;;;;13.43;10.53;;;16.50;99.90;;;;;;5075783;28;20480;-60
2022/09/12 07:38:31;;;;;;;12.00;9.80;;;16.70;99.90;;;;;;5075903;28;20497;-60
2022/09/12 07:41:00;;;;;;;13.53;11.77;;;16.80;99.90;;;;;;5075445;28;20518;-59
2022/09/12 07:43:27;;;;;;;10.10;7.90;;;17.10;99.90;;;;;;5075276;28;20432;-60
2022/09/12 07:45:57;;;;;;;12.80;9.53;;;17.30;99.90;;;;;;5075028;28;20445;-60
2022/09/12 07:48:24;;;;;;;11.87;9.93;;;17.30;99.90;;;;;;5074559;28;20543;-60
2022/09/12 07:50:59;;;;;;;14.03;11.10;;;17.20;99.90;;;;;;5074967;28;20484;-59
2022/09/12 07:53:31;;;;;;;8.60;7.70;;;17.10;99.90;;;;;;5075429;28;20428;-60
2022/09/12 07:55:58;;;;;;;10.77;9.70;;;17.10;99.90;;;;;;5075162;28;20934;-59
2022/09/12 07:58:26;;;;;;;12.73;9.67;;;17.20;99.90;;;;;;5075061;28;20927;-60
2022/09/12 08:00:53;;;;;;;13.17;9.40;;;17.20;99.90;;;;;;5074776;28;20566;-59
2022/09/12 08:03:20;;;;;;;10.83;9.83;;;17.20;99.90;;;;;;5075360;28;20463;-59
2022/09/12 08:05:47;;;;;;;10.20;9.20;;;17.40;99.90;;;;;;5074998;28;20947;-59
2022/09/12 08:08:14;;;;;;;10.73;9.43;;;17.30;99.90;;;;;;5074910;28;20519;-59
2022/09/12 08:10:43;;;;;;;9.83;8.80;;;17.40;99.90;;;;;;5074772;28;20448;-59
2022/09/12 08:13:11;;;;;;;11.53;8.47;;;17.40;99.90;;;;;;5075174;28;20439;-59
2022/09/12 08:15:38;;;;;;;9.83;8.73;;;17.40;99.90;;;;;;5075310;28;20541;-59
2022/09/12 08:18:05;;;;;;;10.77;7.93;;;17.50;99.90;;;;;;5075183;28;20444;-59
2022/09/12 08:20:32;;;;;;;16.23;9.10;;;17.70;99.90;;;;;;5074849;28;20845;-60
2022/09/12 08:22:59;;;;;;;11.63;9.60;;;17.80;99.90;;;;;;5074874;28;20453;-60
2022/09/12 08:25:27;;;;;;;11.43;7.70;;;18.00;99.90;;;;;;5074998;28;20476;-59
2022/09/12 08:27:56;;;;;;;8.07;7.37;;;18.20;99.90;;;;;;5074565;28;20448;-60
2022/09/12 08:30:23;;;;;;;10.53;9.47;;;18.20;99.90;;;;;;5074739;28;20495;-60
2022/09/12 08:32:50;;;;;;;9.10;8.17;;;18.50;99.90;;;;;;5074504;28;20513;-59
2022/09/12 08:35:17;;;;;;;11.53;8.67;;;18.50;99.90;;;;;;5074330;28;20444;-60
2022/09/12 08:37:44;;;;;;;9.83;6.93;;;18.60;99.90;;;;;;5074574;28;20456;-59
2022/09/12 08:40:17;;;;;;;8.20;7.37;;;18.80;99.90;;;;;;5074672;28;20455;-59
2022/09/12 08:43:03;;;;;;;10.73;8.13;;;19.00;99.90;;;;;;5074649;28;20874;-59
2022/09/12 08:45:36;;;;;;;7.17;6.43;;;19.20;99.90;;;;;;5074786;28;20445;-60
2022/09/12 08:48:06;;;;;;;8.63;7.30;;;19.10;99.90;;;;;;5074522;28;20425;-59
2022/09/12 08:50:34;;;;;;;10.40;8.20;;;18.90;99.90;;;;;;5073822;28;20559;-59
2022/09/12 08:53:04;;;;;;;6.40;5.80;;;18.90;99.90;;;;;;5074445;28;20455;-59
2022/09/12 08:55:34;;;;;;;6.93;6.30;;;18.90;99.90;;;;;;5073810;28;20478;-60
2022/09/12 08:58:10;;;;;;;7.00;6.40;;;18.90;99.90;;;;;;5071533;28;20497;-59
2022/09/12 09:00:46;;;;;;;7.97;7.17;;;19.30;99.90;;;;;;5071896;28;20468;-60
2022/09/12 09:03:37;;;;;;;5.50;4.47;;;20.30;99.90;;;;;;5072195;28;20432;-60
2022/09/12 09:06:13;;;;;;;4.50;4.10;;;21.60;99.90;;;;;;5070508;28;20812;-59
2022/09/12 09:08:55;;;;;;;5.43;4.93;;;;;;;;;;5073559;28;20425;-60
2022/09/12 09:11:42;;;;;;;6.80;5.43;;;22.60;99.90;;;;;;5073563;28;21012;-61
2022/09/12 09:17:03;;;;;;;5.57;5.00;;;23.70;99.90;;;;;;5073125;28;20416;-58
2022/09/12 09:19:36;;;;;;;4.37;4.00;;;24.20;99.90;;;;;;5073609;28;20450;-60
2022/09/12 09:22:07;;;;;;;5.10;4.60;;;24.90;99.90;;;;;;5073108;28;20488;-61
2022/09/12 09:24:39;;;;;;;6.90;5.60;;;25.40;99.90;;;;;;5073149;28;20926;-61
2022/09/12 09:27:14;;;;;;;11.27;5.70;;;25.60;99.90;;;;;;5073155;28;20410;-60
2022/09/12 09:29:47;;;;;;;4.20;3.90;;;25.50;99.90;;;;;;5073231;28;20434;-58
2022/09/12 09:32:19;;;;;;;4.77;4.37;;;25.40;99.90;;;;;;5072749;28;20461;-58
2022/09/12 09:34:47;;;;;;;4.67;4.27;;;25.70;99.90;;;;;;5072785;28;20431;-58
2022/09/12 09:37:19;;;;;;;5.03;3.90;;;26.40;98.90;;;;;;5072514;28;20873;-58
2022/09/12 09:39:59;;;;;;;4.40;4.00;;;26.30;99.90;;;;;;5073009;28;20433;-60
2022/09/12 09:42:35;;;;;;;4.23;3.93;;;26.60;99.00;;;;;;5072739;28;20480;-60
2022/09/12 09:45:14;;;;;;;3.80;3.50;;;26.80;97.80;;;;;;5072729;28;20512;-60
2022/09/12 09:47:41;;;;;;;5.53;4.13;;;26.50;97.40;;;;;;5072684;28;20479;-60
2022/09/12 09:50:16;;;;;;;6.40;3.60;;;27.10;97.20;;;;;;5072587;28;20483;-62
2022/09/12 09:52:44;;;;;;;3.80;3.50;;;27.50;95.10;;;;;;5072551;28;20788;-59
2022/09/12 09:55:17;;;;;;;5.87;4.60;;;26.90;95.40;;;;;;5072460;28;20896;-59
2022/09/12 09:57:51;;;;;;;3.90;3.60;;;27.10;95.30;;;;;;5072276;28;20427;-59
2022/09/12 10:00:30;;;;;;;3.57;3.20;;;27.80;94.50;;;;;;5072695;28;20878;-60
2022/09/12 10:03:31;;;;;;;3.80;3.40;;;28.50;93.50;;;;;;5072387;28;20558;-60
2022/09/12 10:06:01;;;;;;;3.47;3.17;;;28.40;93.00;;;;;;5069477;28;20447;-59
2022/09/12 10:08:31;;;;;;;3.80;3.50;;;28.30;92.20;;;;;;5071945;28;20440;-59
2022/09/12 10:11:01;;;;;;;6.17;3.07;;;27.70;92.00;;;;;;5071324;28;20472;-59
2022/09/12 10:13:40;;;;;;;3.13;2.93;;;28.10;91.30;;;;;;5072265;28;20449;-59
2022/09/12 10:16:19;;;;;;;3.33;3.10;;;28.10;91.70;;;;;;5072129;28;20478;-59
2022/09/12 10:18:46;;;;;;;6.23;3.10;;;28.30;88.80;;;;;;5072323;28;20435;-59
2022/09/12 10:21:28;;;;;;;2.97;2.70;;;28.40;87.80;;;;;;5071913;28;20472;-59
2022/09/12 10:24:02;;;;;;;2.83;2.63;;;29.10;86.60;;;;;;5072425;28;20429;-59
2022/09/12 10:26:34;;;;;;;2.90;2.70;;;29.00;86.90;;;;;;5072340;28;20768;-59
2022/09/12 10:29:10;;;;;;;3.57;2.87;;;28.80;84.20;;;;;;5072189;28;20433;-58
2022/09/12 10:31:47;;;;;;;3.20;3.00;;;28.30;85.60;;;;;;5072393;28;20475;-60
2022/09/12 10:34:29;;;;;;;4.73;2.70;;;27.90;85.60;;;;;;5072108;28;20547;-58
2022/09/12 10:37:02;;;;;;;3.00;2.80;;;29.20;84.00;;;;;;5071791;28;20915;-59
2022/09/12 10:39:31;;;;;;;2.70;2.50;;;29.20;83.20;;;;;;5071740;28;20413;-59
2022/09/12 10:41:58;;;;;;;2.80;2.60;;;29.00;78.90;;;;;;5071407;28;20986;-59
2022/09/12 10:44:28;;;;;;;3.30;3.00;;;29.10;82.20;;;;;;5071379;28;20480;-59
2022/09/12 10:46:58;;;;;;;3.43;3.03;;;29.30;80.50;;;;;;5071490;28;20455;-59
2022/09/12 10:49:28;;;;;;;4.67;2.40;;;29.00;78.20;;;;;;5071933;28;20449;-59
2022/09/12 10:51:58;;;;;;;3.60;2.93;;;28.90;79.30;;;;;;5072106;28;20965;-60
2022/09/12 10:54:28;;;;;;;3.40;3.10;;;29.20;80.00;;;;;;5072069;28;20456;-60
2022/09/12 10:57:15;;;;;;;3.53;2.80;;;28.40;76.40;;;;;;5072509;28;20453;-60
2022/09/12 11:00:05;;;;;;;2.67;2.47;;;28.50;76.80;;;;;;5070277;28;20530;-60
2022/09/12 11:02:50;;;;;;;2.67;2.40;;;29.50;76.50;;;;;;5072506;28;20915;-60
2022/09/12 11:05:35;;;;;;;2.77;2.57;;;29.20;73.60;;;;;;5072532;28;20439;-60
2022/09/12 11:08:13;;;;;;;3.63;2.80;;;29.40;73.90;;;;;;5072219;28;20825;-60
2022/09/12 11:10:50;;;;;;;6.03;2.60;;;29.70;73.40;;;;;;5072094;28;20910;-60
2022/09/12 11:13:30;;;;;;;3.17;2.67;;;28.80;73.40;;;;;;5072628;28;20424;-60
2022/09/12 11:16:11;;;;;;;2.87;2.60;;;29.50;76.00;;;;;;5072757;28;20515;-60
2022/09/12 11:18:56;;;;;;;5.23;2.50;;;29.80;71.60;;;;;;5072571;28;20437;-59
2022/09/12 11:21:43;;;;;;;2.37;2.17;;;30.00;72.70;;;;;;5073578;28;20494;-59
2022/09/12 11:24:47;;;;;;;2.33;2.13;;;29.70;71.40;;;;;;5076357;28;20428;-60
2022/09/12 11:27:32;;;;;;;3.07;2.73;;;29.60;70.50;;;;;;5013938;28;20831;-60
2022/09/12 11:30:05;;;;;;;2.57;2.37;;;28.90;68.20;;;;;;5071790;28;20444;-59
2022/09/12 11:33:06;;;;;;;2.50;2.30;;;28.90;69.10;;;;;;5075454;28;20618;-60
2022/09/12 11:35:40;;;;;;;2.50;2.27;;;29.50;71.40;;;;;;5075743;28;20428;-60
2022/09/12 11:38:38;;;;;;;6.13;2.10;;;29.30;66.90;;;;;;5075609;28;20479;-59
2022/09/12 11:41:09;;;;;;;2.10;1.90;;;29.70;66.50;;;;;;5069907;28;20525;-59
2022/09/12 11:43:41;;;;;;;2.27;2.00;;;30.50;65.70;;;;;;5075789;28;20452;-60
2022/09/12 11:46:18;;;;;;;2.20;2.00;;;30.20;65.50;;;;;;5075419;28;20440;-60
2022/09/12 11:48:53;;;;;;;2.77;2.57;;;29.90;65.60;;;;;;5075388;28;20899;-60
2022/09/12 11:51:26;;;;;;;2.00;1.80;;;29.60;66.40;;;;;;5075119;28;20487;-59
2022/09/12 11:54:03;;;;;;;2.07;1.90;;;29.80;65.50;;;;;;5075573;28;20810;-60
2022/09/12 11:56:31;;;;;;;1.80;1.70;;;29.10;59.80;;;;;;5075110;28;20914;-59
2022/09/12 11:59:03;;;;;;;1.90;1.70;;;29.20;61.00;;;;;;5075284;28;20451;-60
2022/09/12 12:01:35;;;;;;;1.70;1.60;;;28.90;64.00;;;;;;5075290;28;20468;-59
2022/09/12 12:04:10;;;;;;;2.03;1.70;;;29.50;62.70;;;;;;5075060;28;20884;-60
2022/09/12 12:06:48;;;;;;;1.80;1.70;;;29.30;59.60;;;;;;5075143;28;20432;-59
2022/09/12 12:09:16;;;;;;;1.70;1.60;;;29.60;59.20;;;;;;5075281;28;20475;-59
2022/09/12 12:11:49;;;;;;;1.80;1.70;;;30.00;60.70;;;;;;5075232;28;20881;-59
2022/09/12 12:14:19;;;;;;;1.60;1.50;;;30.20;60.90;;;;;;5075105;28;20436;-58
2022/09/12 12:16:48;;;;;;;2.07;1.60;;;29.60;59.70;;;;;;5075075;28;20448;-59
2022/09/12 12:19:34;;;;;;;2.07;1.87;;;30.00;59.20;;;;;;5074839;28;20952;-59
2022/09/12 12:22:17;;;;;;;3.40;2.00;;;30.50;59.50;;;;;;5074901;28;20488;-58
2022/09/12 12:25:25;;;;;;;1.83;1.70;;;30.90;57.80;;;;;;5075074;28;20452;-59
2022/09/12 12:27:55;;;;;;;3.60;1.70;;;30.80;58.20;;;;;;5032412;28;20468;-58
2022/09/12 12:31:00;;;;;;;3.07;1.80;;;30.50;57.00;;;;;;5068963;28;20444;-59
2022/09/12 12:33:55;;;;;;;1.80;1.70;;;30.10;57.20;;;;;;5073727;28;20474;-59
2022/09/12 12:36:39;;;;;;;4.20;1.63;;;30.50;58.00;;;;;;5047198;28;20879;-59
2022/09/12 12:39:49;;;;;;;1.63;1.53;;;30.40;57.30;;;;;;5074693;28;20433;-59
2022/09/12 12:43:02;;;;;;;1.90;1.47;;;30.20;58.20;;;;;;5074463;28;20962;-59
2022/09/12 12:46:06;;;;;;;2.30;1.83;;;29.90;58.50;;;;;;5074547;28;20432;-59
2022/09/12 12:48:53;;;;;;;2.23;2.03;;;29.70;58.10;;;;;;5074673;28;20916;-59
2022/09/12 12:51:52;;;;;;;1.73;1.63;;;29.30;58.60;;;;;;5074033;28;20480;-59
2022/09/12 12:54:55;;;;;;;2.90;2.00;;;29.70;59.10;;;;;;5074346;28;20436;-59
2022/09/12 12:57:38;;;;;;;3.50;1.73;;;29.40;59.60;;;;;;5074057;28;20490;-59
2022/09/12 13:00:08;;;;;;;1.87;1.77;;;29.00;59.30;;;;;;5073954;28;20432;-59
2022/09/12 13:02:41;;;;;;;5.07;2.00;;;29.00;59.50;;;;;;5073672;28;20990;-59
2022/09/12 13:05:19;;;;;;;1.70;1.60;;;28.90;59.30;;;;;;5074159;28;20432;-59
2022/09/12 13:07:53;;;;;;;1.70;1.60;;;28.90;58.90;;;;;;5074229;28;20420;-59
2022/09/12 13:10:23;;;;;;;2.63;1.80;;;29.00;58.70;;;;;;5073951;28;20535;-59
2022/09/12 13:12:52;;;;;;;2.00;1.90;;;29.20;59.40;;;;;;5074115;28;20736;-59